Time;durP1;ratioP1;P1;durP2;ratioP2;P2;SDS_P1;SDS_P2;PMS_P1;PMS_P2;Temp;Humidity;BMP_temperature;BMP_pressure;BME280_temperature;BME280_humidity;BME280_pressure;Samples;Min_cycle;Max_cycle;Signal;HPM_P1;HPM_P2
2023/05/18 00:02:03;;;;;;;12.95;2.88;;;;;;;7.14;86.18;102724.16;4970462;28;20489;-68
2023/05/18 00:04:30;;;;;;;8.63;2.80;;;;;;;7.12;85.52;102717.28;4970567;28;20121;-68
2023/05/18 00:06:57;;;;;;;7.03;2.42;;;;;;;7.05;86.05;102705.50;4970351;28;20027;-68
2023/05/18 00:09:24;;;;;;;11.18;5.22;;;;;;;7.03;86.54;102722.41;4970462;28;20046;-68
2023/05/18 00:11:50;;;;;;;7.65;2.72;;;;;;;7.00;87.36;102722.66;4970581;28;20041;-68
2023/05/18 00:14:16;;;;;;;5.03;2.63;;;;;;;6.99;87.45;102720.13;4970842;28;20031;-68
2023/05/18 00:16:41;;;;;;;7.45;2.92;;;;;;;6.96;87.36;102712.41;4973840;28;20047;-68
2023/05/18 00:19:07;;;;;;;8.13;3.15;;;;;;;6.92;87.48;102711.00;4974333;28;20092;-68
2023/05/18 00:21:34;;;;;;;5.10;2.67;;;;;;;6.88;87.45;102712.22;4956466;28;20549;-68
2023/05/18 00:23:59;;;;;;;7.78;2.83;;;;;;;6.89;87.55;102721.84;4973974;28;20042;-68
2023/05/18 00:26:25;;;;;;;12.68;2.72;;;;;;;6.87;87.79;102713.19;4956256;28;20039;-68
2023/05/18 00:28:51;;;;;;;7.97;3.42;;;;;;;6.84;88.41;102713.41;4973796;28;20039;-68
2023/05/18 00:31:16;;;;;;;11.02;2.85;;;;;;;6.82;88.21;102713.56;4973758;28;20133;-68
2023/05/18 00:33:44;;;;;;;13.00;3.30;;;;;;;6.81;88.18;102719.81;4973635;28;20039;-68
2023/05/18 00:36:09;;;;;;;7.50;3.72;;;;;;;6.77;88.51;102713.09;4973638;28;20401;-68
2023/05/18 00:38:35;;;;;;;6.03;2.75;;;;;;;6.73;88.51;102720.47;4973654;28;20035;-68
2023/05/18 00:41:00;;;;;;;10.07;2.25;;;;;;;6.69;88.79;102720.84;4973595;28;20704;-68
2023/05/18 00:43:26;;;;;;;6.63;2.58;;;;;;;6.66;89.31;102715.78;4973668;28;20030;-68
2023/05/18 00:45:51;;;;;;;8.13;2.72;;;;;;;6.62;88.98;102725.78;4973469;28;20035;-68
2023/05/18 00:48:16;;;;;;;9.55;2.58;;;;;;;6.55;89.26;102722.81;4973659;28;20114;-68
2023/05/18 00:50:42;;;;;;;10.27;2.78;;;;;;;6.57;90.46;102727.97;4955965;28;20022;-68
2023/05/18 00:53:09;;;;;;;9.60;2.83;;;;;;;6.54;90.16;102723.75;4973434;28;20593;-68
2023/05/18 00:55:35;;;;;;;9.07;3.65;;;;;;;6.52;90.31;102717.75;4973444;28;20520;-68
2023/05/18 00:58:01;;;;;;;5.03;2.80;;;;;;;6.49;90.27;102717.97;4973242;28;20031;-68
2023/05/18 01:00:27;;;;;;;7.10;2.70;;;;;;;6.48;90.61;102718.97;4973179;28;20097;-68
2023/05/18 01:02:53;;;;;;;5.85;2.85;;;;;;;6.40;90.71;102707.31;4956092;28;20208;-68
2023/05/18 01:05:20;;;;;;;8.73;2.67;;;;;;;6.41;90.33;102717.75;4973200;28;20126;-68
2023/05/18 01:07:47;;;;;;;9.07;3.38;;;;;;;6.41;90.25;102722.22;4973033;28;20109;-68
2023/05/18 01:10:15;;;;;;;5.25;2.60;;;;;;;6.35;91.15;102718.25;4972865;28;20034;-68
2023/05/18 01:12:49;;;;;;;14.40;3.67;;;;;;;6.32;91.01;102723.81;4991746;28;20026;-68
2023/05/18 01:15:19;;;;;;;9.60;3.15;;;;;;;6.31;91.48;102722.09;4991449;28;20088;-68
2023/05/18 01:18:05;;;;;;;7.80;3.40;;;;;;;6.30;90.98;102733.69;4991442;28;20438;-68
2023/05/18 01:20:46;;;;;;;6.78;2.72;;;;;;;6.27;91.72;102729.47;4991449;28;20129;-68
2023/05/18 01:23:19;;;;;;;8.25;2.83;;;;;;;6.20;92.25;102725.63;4991264;28;20030;-68
2023/05/18 01:25:53;;;;;;;5.13;3.22;;;;;;;6.20;91.84;102733.56;4990951;28;20029;-68
2023/05/18 01:28:26;;;;;;;5.65;2.78;;;;;;;6.16;91.65;102734.78;4990985;28;20080;-68
2023/05/18 01:30:52;;;;;;;4.93;2.85;;;;;;;6.08;91.74;102729.25;4991252;28;20100;-68
2023/05/18 01:33:18;;;;;;;4.60;2.28;;;;;;;6.08;92.77;102735.38;4991204;28;20366;-68
2023/05/18 01:35:50;;;;;;;11.35;3.20;;;;;;;6.04;92.83;102733.94;4991074;28;20026;-68
2023/05/18 01:38:18;;;;;;;4.32;2.63;;;;;;;6.04;92.52;102728.63;4991099;28;20930;-68
2023/05/18 01:40:51;;;;;;;12.50;4.25;;;;;;;6.01;93.52;102736.81;4990901;28;20441;-68
2023/05/18 01:43:20;;;;;;;9.60;3.58;;;;;;;5.98;93.64;102731.78;4991152;28;20037;-68
2023/05/18 01:45:50;;;;;;;9.23;3.22;;;;;;;5.93;93.24;102718.88;4990939;28;20046;-68
2023/05/18 01:48:19;;;;;;;5.60;2.97;;;;;;;5.92;94.46;102733.06;4990807;28;20034;-68
2023/05/18 01:50:47;;;;;;;10.80;3.22;;;;;;;5.90;94.55;102737.63;4990832;28;20026;-68
2023/05/18 01:53:22;;;;;;;9.73;3.00;;;;;;;5.89;94.31;102730.66;4990921;28;20034;-68
2023/05/18 01:55:49;;;;;;;6.20;2.90;;;;;;;5.90;94.14;102732.34;4990749;28;20033;-67
2023/05/18 01:58:16;;;;;;;10.88;3.45;;;;;;;5.80;94.87;102714.63;4990842;28;20105;-68
2023/05/18 02:00:42;;;;;;;9.43;3.67;;;;;;;5.87;94.51;102719.34;4990747;28;20557;-67
2023/05/18 02:03:07;;;;;;;8.27;3.50;;;;;;;5.86;94.60;102719.44;4990565;28;20125;-67
2023/05/18 02:05:32;;;;;;;11.05;3.70;;;;;;;5.83;95.62;102722.34;4990705;28;20068;-68
2023/05/18 02:07:58;;;;;;;10.18;3.78;;;;;;;5.82;95.02;102726.78;4990459;28;20061;-68
2023/05/18 02:10:23;;;;;;;10.02;3.63;;;;;;;5.83;95.24;102724.97;4990554;28;20062;-67
2023/05/18 02:12:51;;;;;;;11.80;3.63;;;;;;;5.78;94.74;102711.25;4990441;28;20411;-68
2023/05/18 02:15:17;;;;;;;3.95;3.00;;;;;;;5.78;96.05;102724.50;4990419;28;20626;-68
2023/05/18 02:17:42;;;;;;;9.38;3.47;;;;;;;5.78;96.10;102721.84;4972756;28;20026;-68
2023/05/18 02:20:08;;;;;;;12.02;4.20;;;;;;;5.73;95.77;102719.56;4990179;28;20053;-67
2023/05/18 02:22:35;;;;;;;8.80;3.15;;;;;;;5.74;95.61;102726.56;4990372;28;20034;-67
2023/05/18 02:25:01;;;;;;;8.38;3.05;;;;;;;5.74;95.96;102723.03;4990286;28;20507;-67
2023/05/18 02:27:27;;;;;;;7.45;3.30;;;;;;;5.69;96.33;102711.00;4990079;28;20049;-67
2023/05/18 02:29:53;;;;;;;6.15;3.65;;;;;;;5.70;96.69;102719.78;4990427;28;20477;-67
2023/05/18 02:32:18;;;;;;;14.32;3.40;;;;;;;5.70;97.37;102710.03;4990188;28;20056;-68
2023/05/18 02:34:45;;;;;;;5.20;3.25;;;;;;;5.68;96.52;102717.25;4990036;28;20477;-68
2023/05/18 02:37:12;;;;;;;9.52;3.55;;;;;;;5.68;96.64;102708.47;4990119;28;20030;-68
2023/05/18 02:39:37;;;;;;;16.83;4.28;;;;;;;5.61;96.68;102702.81;4989970;28;20026;-67
2023/05/18 02:42:03;;;;;;;6.43;3.30;;;;;;;5.63;97.12;102714.16;4990028;28;20034;-68
2023/05/18 02:44:28;;;;;;;6.95;2.83;;;;;;;5.61;97.20;102705.47;4990025;28;20034;-67
2023/05/18 02:46:54;;;;;;;7.95;3.13;;;;;;;5.58;97.70;102708.38;4989733;28;20858;-67
2023/05/18 02:49:19;;;;;;;11.95;4.47;;;;;;;5.58;97.50;102707.50;4956117;28;20045;-68
2023/05/18 02:51:45;;;;;;;8.73;3.97;;;;;;;5.56;97.59;102709.44;4989694;28;20054;-67
2023/05/18 02:54:10;;;;;;;10.10;3.15;;;;;;;5.46;97.97;102696.91;4989772;28;20097;-68
2023/05/18 02:56:35;;;;;;;12.80;3.88;;;;;;;5.56;98.22;102712.91;4989666;28;20458;-68
2023/05/18 02:59:01;;;;;;;11.95;4.60;;;;;;;5.53;97.72;102705.22;4989537;28;20026;-68
2023/05/18 03:01:26;;;;;;;7.72;3.42;;;;;;;5.51;97.78;102711.59;4972263;28;20056;-68
2023/05/18 03:03:52;;;;;;;8.45;3.67;;;;;;;5.51;97.86;102701.84;4989588;28;20038;-68
2023/05/18 03:06:22;;;;;;;7.63;3.92;;;;;;;5.50;98.79;102705.44;4972272;28;20030;-67
2023/05/18 03:08:49;;;;;;;8.13;3.20;;;;;;;5.48;98.54;102705.56;4971966;28;20389;-68
2023/05/18 03:11:14;;;;;;;8.60;4.13;;;;;;;5.46;98.38;102710.13;4989550;28;20061;-68
2023/05/18 03:13:40;;;;;;;12.23;3.33;;;;;;;5.43;98.55;102704.25;4989434;28;20035;-68
2023/05/18 03:16:05;;;;;;;7.82;3.00;;;;;;;5.43;99.05;102707.72;4989440;28;20117;-68
2023/05/18 03:18:31;;;;;;;7.72;3.70;;;;;;;5.43;98.83;102707.72;4989464;28;20027;-68
2023/05/18 03:21:00;;;;;;;3.88;2.90;;;;;;;5.41;98.68;102709.63;4971893;28;20030;-67
2023/05/18 03:23:26;;;;;;;7.55;3.30;;;;;;;5.44;98.92;102716.50;4989543;28;20046;-67
2023/05/18 03:25:53;;;;;;;9.55;3.05;;;;;;;5.41;98.32;102719.38;4989522;28;20085;-67
2023/05/18 03:28:19;;;;;;;7.38;3.63;;;;;;;5.40;98.84;102713.25;4989180;28;20048;-67
2023/05/18 03:30:45;;;;;;;12.05;5.00;;;;;;;5.36;98.93;102708.31;4989301;28;20037;-67
2023/05/18 03:33:10;;;;;;;8.70;3.65;;;;;;;5.35;99.49;102710.13;4989296;28;20046;-67
2023/05/18 03:35:38;;;;;;;14.93;3.58;;;;;;;5.36;99.02;102711.78;4989332;28;20049;-67
2023/05/18 03:38:04;;;;;;;8.65;3.95;;;;;;;5.36;99.62;102708.31;4989275;28;20077;-67
2023/05/18 03:40:29;;;;;;;14.07;4.28;;;;;;;5.33;99.63;102711.19;4989296;28;20062;-67
2023/05/18 03:42:54;;;;;;;9.07;3.30;;;;;;;5.33;99.27;102711.19;4970645;28;20041;-67
2023/05/18 03:45:20;;;;;;;10.77;3.67;;;;;;;5.34;99.18;102716.34;4970691;28;20030;-67
2023/05/18 03:47:46;;;;;;;7.07;3.95;;;;;;;5.32;99.11;102709.47;4970586;28;20482;-67
2023/05/18 03:50:11;;;;;;;10.85;3.45;;;;;;;5.35;99.90;102710.13;4972403;28;20027;-68
2023/05/18 03:52:38;;;;;;;7.30;2.88;;;;;;;5.37;99.89;102712.63;4974387;28;20502;-67
2023/05/18 03:55:04;;;;;;;9.93;5.03;;;;;;;5.38;100.00;102712.53;4974395;28;20039;-67
2023/05/18 03:57:30;;;;;;;14.35;5.03;;;;;;;5.39;99.28;102719.50;4974361;28;20041;-67
2023/05/18 03:59:56;;;;;;;10.95;4.88;;;;;;;5.42;99.52;102715.75;4974376;28;20092;-67
2023/05/18 04:02:22;;;;;;;6.60;3.10;;;;;;;5.41;99.71;102711.44;4974172;28;20498;-68
2023/05/18 04:04:48;;;;;;;11.77;3.80;;;;;;;5.40;99.71;102709.78;4956913;28;20556;-68
2023/05/18 04:07:20;;;;;;;8.13;3.42;;;;;;;5.47;99.29;102721.56;4973992;28;20034;-68
2023/05/18 04:09:46;;;;;;;8.48;3.08;;;;;;;5.50;98.75;102721.31;4974176;28;20031;-68
2023/05/18 04:12:11;;;;;;;9.85;3.33;;;;;;;5.52;98.38;102724.69;4973948;28;20474;-68
2023/05/18 04:14:37;;;;;;;6.35;3.30;;;;;;;5.55;98.93;102720.97;4974150;28;20089;-68
2023/05/18 04:17:05;;;;;;;12.60;3.80;;;;;;;5.52;98.42;102714.09;4974131;28;20035;-68
2023/05/18 04:19:33;;;;;;;12.38;4.57;;;;;;;5.60;99.01;102726.75;4974173;28;20470;-67
2023/05/18 04:21:59;;;;;;;16.25;4.03;;;;;;;5.62;97.37;102727.47;4973953;28;20461;-68
2023/05/18 04:24:25;;;;;;;11.23;4.57;;;;;;;5.63;98.56;102731.81;4992605;28;20117;-68
2023/05/18 04:26:51;;;;;;;9.88;3.58;;;;;;;5.62;98.36;102733.63;4992479;28;20118;-68
2023/05/18 04:29:17;;;;;;;7.20;2.63;;;;;;;5.67;97.89;102736.75;4992445;28;20638;-68
2023/05/18 04:31:43;;;;;;;9.63;3.92;;;;;;;5.72;97.72;102734.59;4992344;28;20034;-68
2023/05/18 04:34:09;;;;;;;8.88;3.65;;;;;;;5.79;98.36;102744.69;4992169;28;20460;-68
2023/05/18 04:36:34;;;;;;;9.68;3.67;;;;;;;5.81;97.75;102742.78;4992323;28;20030;-68
2023/05/18 04:39:02;;;;;;;7.72;3.20;;;;;;;5.86;96.92;102743.28;4974604;28;20512;-68
2023/05/18 04:41:27;;;;;;;9.88;4.25;;;;;;;5.92;97.46;102745.44;4992146;28;20042;-68
2023/05/18 04:43:53;;;;;;;11.50;3.78;;;;;;;5.99;97.66;102749.34;4992139;28;20903;-68
2023/05/18 04:46:21;;;;;;;10.65;3.42;;;;;;;6.03;97.00;102744.66;4976565;28;20062;-68
2023/05/18 04:48:48;;;;;;;10.48;3.25;;;;;;;6.11;97.32;102751.03;4973507;28;20031;-68
2023/05/18 04:51:20;;;;;;;5.68;2.80;;;;;;;6.10;96.86;102729.94;4973278;28;20051;-68
2023/05/18 04:53:49;;;;;;;12.63;3.85;;;;;;;6.31;95.89;102748.59;4973287;28;20585;-68
2023/05/18 04:56:21;;;;;;;12.20;4.82;;;;;;;6.31;94.95;102748.59;4973348;28;20117;-68
2023/05/18 04:58:47;;;;;;;10.63;4.03;;;;;;;6.28;94.42;102735.59;4975143;28;20140;-67
2023/05/18 05:01:16;;;;;;;8.93;3.85;;;;;;;6.27;94.73;102748.00;4990465;28;20448;-68
2023/05/18 05:03:42;;;;;;;10.82;4.38;;;;;;;6.24;95.55;102748.25;4991875;28;20042;-67
2023/05/18 05:06:07;;;;;;;10.05;3.63;;;;;;;6.26;94.32;102748.13;4991619;28;20026;-68
2023/05/18 05:08:33;;;;;;;8.90;3.75;;;;;;;6.24;94.62;102753.56;4991453;28;20497;-67
2023/05/18 05:10:59;;;;;;;13.65;4.40;;;;;;;6.26;94.85;102754.28;4991574;28;20390;-68
2023/05/18 05:13:25;;;;;;;10.85;4.43;;;;;;;6.29;94.43;102754.03;4991848;28;20481;-68
2023/05/18 05:15:50;;;;;;;11.55;4.32;;;;;;;6.34;94.78;102756.31;4991641;28;20037;-68
2023/05/18 05:18:16;;;;;;;13.88;5.15;;;;;;;6.40;95.06;102758.50;4991426;28;20019;-67
2023/05/18 05:20:41;;;;;;;9.60;4.68;;;;;;;6.45;94.90;102763.44;4991169;28;20038;-68
2023/05/18 05:23:07;;;;;;;17.13;5.35;;;;;;;6.50;94.39;102754.16;4991316;28;20085;-68
2023/05/18 05:25:32;;;;;;;14.93;4.97;;;;;;;6.62;93.42;102759.41;4991350;28;20508;-67
2023/05/18 05:27:57;;;;;;;7.32;3.60;;;;;;;6.69;93.47;102760.63;4991037;28;20042;-68
2023/05/18 05:30:23;;;;;;;13.63;4.20;;;;;;;6.73;93.34;102759.38;4991282;28;20034;-68
2023/05/18 05:32:48;;;;;;;14.95;4.07;;;;;;;6.84;93.36;102756.72;4973522;28;20038;-67
2023/05/18 05:35:13;;;;;;;9.55;4.43;;;;;;;6.93;93.17;102755.97;4991204;28;20113;-68
2023/05/18 05:37:39;;;;;;;6.97;3.42;;;;;;;7.00;92.01;102756.31;4991045;28;20034;-67
2023/05/18 05:40:05;;;;;;;9.07;5.00;;;;;;;7.00;90.79;102758.97;4990979;28;20033;-68
2023/05/18 05:42:31;;;;;;;11.43;5.07;;;;;;;6.92;90.71;102753.44;4991223;28;20038;-67
2023/05/18 05:44:56;;;;;;;9.10;3.92;;;;;;;6.95;91.32;102759.34;4972371;28;20053;-67
2023/05/18 05:47:22;;;;;;;7.43;3.53;;;;;;;6.94;92.03;102751.50;4972148;28;20049;-67
2023/05/18 05:49:47;;;;;;;17.95;5.65;;;;;;;7.10;91.81;102753.72;4972497;28;20125;-68
2023/05/18 05:52:12;;;;;;;7.40;3.45;;;;;;;7.18;90.11;102753.97;4954469;28;20055;-68
2023/05/18 05:54:39;;;;;;;9.50;4.45;;;;;;;7.19;90.77;102753.81;4954720;28;20035;-68
2023/05/18 05:57:05;;;;;;;14.52;4.20;;;;;;;7.25;89.76;102753.28;4954643;28;20437;-68
2023/05/18 05:59:30;;;;;;;20.45;4.68;;;;;;;7.31;89.33;102759.06;4971913;28;20039;-67
2023/05/18 06:01:55;;;;;;;10.40;3.60;;;;;;;7.34;89.87;102742.91;4972081;28;20682;-67
2023/05/18 06:04:21;;;;;;;13.63;5.97;;;;;;;7.46;88.76;102758.63;4972177;28;20395;-68
2023/05/18 06:06:47;;;;;;;12.93;4.32;;;;;;;7.43;88.13;102747.41;4971838;28;20576;-67
2023/05/18 06:09:12;;;;;;;7.75;3.55;;;;;;;7.49;86.98;102757.50;4971778;28;20113;-68
2023/05/18 06:11:38;;;;;;;12.27;3.97;;;;;;;7.51;88.24;102754.75;4971804;28;20110;-68
2023/05/18 06:14:04;;;;;;;12.52;5.10;;;;;;;7.55;87.23;102758.84;4971272;28;20018;-68
2023/05/18 06:16:29;;;;;;;12.38;4.30;;;;;;;7.58;88.07;102753.25;4971612;28;20026;-68
2023/05/18 06:18:54;;;;;;;8.45;3.67;;;;;;;7.67;86.62;102760.44;4971835;28;20101;-67
2023/05/18 06:21:20;;;;;;;9.25;4.38;;;;;;;7.67;86.49;102758.59;4971604;28;20096;-68
2023/05/18 06:23:45;;;;;;;8.98;3.92;;;;;;;7.68;86.89;102756.81;4971540;28;20023;-68
2023/05/18 06:26:11;;;;;;;9.50;4.57;;;;;;;7.72;84.84;102766.19;4971510;28;20041;-68
2023/05/18 06:28:36;;;;;;;8.77;4.10;;;;;;;7.83;86.15;102767.94;4971339;28;20115;-68
2023/05/18 06:31:02;;;;;;;10.90;5.03;;;;;;;7.93;86.31;102763.50;4971501;28;20030;-67
2023/05/18 06:33:27;;;;;;;13.30;4.75;;;;;;;8.02;84.35;102769.88;4971607;28;20512;-68
2023/05/18 06:35:53;;;;;;;14.85;4.72;;;;;;;8.16;86.21;102774.81;4971402;28;20492;-68
2023/05/18 06:38:18;;;;;;;9.10;4.18;;;;;;;8.24;85.39;102772.34;4971345;28;20030;-68
2023/05/18 06:40:44;;;;;;;13.02;5.05;;;;;;;8.24;84.21;102774.16;4971060;28;20108;-68
2023/05/18 06:43:09;;;;;;;9.77;4.53;;;;;;;8.23;85.08;102765.34;4971435;28;20131;-70
2023/05/18 06:45:35;;;;;;;9.85;4.20;;;;;;;8.28;84.02;102767.59;4970931;28;20474;-70
2023/05/18 06:48:00;;;;;;;9.05;3.80;;;;;;;8.30;84.33;102765.63;4971140;28;20038;-70
2023/05/18 06:50:25;;;;;;;12.73;5.20;;;;;;;8.25;83.85;102774.03;4971136;28;20031;-70
2023/05/18 06:52:51;;;;;;;12.27;5.18;;;;;;;8.29;83.34;102783.41;4971023;28;20058;-70
2023/05/18 06:55:16;;;;;;;12.50;4.25;;;;;;;8.32;83.81;102772.50;4971078;28;20026;-70
2023/05/18 06:57:42;;;;;;;14.18;4.75;;;;;;;8.39;84.72;102772.84;4970940;28;20031;-70
2023/05/18 07:00:09;;;;;;;12.23;5.18;;;;;;;8.48;83.36;102774.69;4971059;28;20088;-70
2023/05/18 07:02:34;;;;;;;14.27;4.90;;;;;;;8.61;83.52;102777.09;4970940;28;20034;-69
2023/05/18 07:05:00;;;;;;;10.93;4.80;;;;;;;8.68;81.73;102780.91;4953583;28;20038;-70
2023/05/18 07:07:26;;;;;;;5.40;3.72;;;;;;;8.81;82.29;102771.84;4975030;28;20031;-69
2023/05/18 07:09:53;;;;;;;12.27;4.70;;;;;;;8.86;80.24;102772.28;4980333;28;20033;-72
2023/05/18 07:12:19;;;;;;;11.85;4.38;;;;;;;9.01;80.90;102778.84;4980380;28;20033;-70
2023/05/18 07:14:44;;;;;;;8.40;4.07;;;;;;;9.11;79.88;102793.00;4979467;28;20035;-69
2023/05/18 07:17:10;;;;;;;13.07;4.47;;;;;;;9.16;79.15;102785.44;4981067;28;20109;-70
2023/05/18 07:19:35;;;;;;;14.02;4.57;;;;;;;9.19;77.80;102790.47;4979930;28;20065;-69
2023/05/18 07:22:00;;;;;;;13.38;4.95;;;;;;;9.21;77.38;102782.38;4980917;28;20028;-69
2023/05/18 07:24:26;;;;;;;9.23;4.30;;;;;;;9.36;77.70;102780.97;4980052;28;20401;-69
2023/05/18 07:26:51;;;;;;;7.85;4.10;;;;;;;9.45;76.51;102792.59;4979922;28;20022;-69
2023/05/18 07:29:17;;;;;;;13.50;3.40;;;;;;;9.45;75.93;102787.25;4980333;28;20093;-69
2023/05/18 07:31:42;;;;;;;12.25;4.95;;;;;;;9.51;76.83;102788.50;4979902;28;20052;-69
2023/05/18 07:34:07;;;;;;;9.13;4.38;;;;;;;9.57;77.30;102787.97;4965467;28;20034;-69
2023/05/18 07:36:33;;;;;;;16.08;4.13;;;;;;;9.68;75.61;102802.94;4980070;28;20061;-69
2023/05/18 07:38:59;;;;;;;9.77;3.83;;;;;;;9.80;75.12;102793.81;4980023;28;20029;-70
2023/05/18 07:41:26;;;;;;;10.77;3.65;;;;;;;9.88;74.36;102799.28;4980152;28;20026;-69
2023/05/18 07:43:52;;;;;;;10.10;3.83;;;;;;;9.90;73.51;102804.44;4980777;28;20038;-70
2023/05/18 07:46:18;;;;;;;15.25;5.03;;;;;;;9.92;72.14;102805.16;4980282;28;20041;-70
2023/05/18 07:48:46;;;;;;;11.93;4.18;;;;;;;9.91;73.15;102811.47;4979943;28;20030;-71
2023/05/18 07:51:12;;;;;;;8.82;5.07;;;;;;;9.93;71.49;102802.34;4964582;28;20056;-71
2023/05/18 07:53:37;;;;;;;7.80;3.55;;;;;;;9.98;70.83;102801.88;4962569;28;20477;-70
2023/05/18 07:56:04;;;;;;;13.02;3.90;;;;;;;10.07;71.79;102807.19;4980630;28;20030;-70
2023/05/18 07:58:30;;;;;;;12.98;4.32;;;;;;;10.15;70.53;102806.47;4962024;28;20023;-70
2023/05/18 08:00:55;;;;;;;8.27;3.67;;;;;;;10.36;70.45;102816.97;4980311;28;20042;-70
2023/05/18 08:03:21;;;;;;;16.15;4.35;;;;;;;10.38;70.16;102807.00;4980815;28;20118;-70
2023/05/18 08:05:46;;;;;;;9.80;3.63;;;;;;;10.60;70.51;102821.75;4980454;28;20385;-70
2023/05/18 08:08:14;;;;;;;10.68;4.97;;;;;;;10.95;68.93;102818.34;4980100;28;20117;-70
2023/05/18 08:10:42;;;;;;;9.00;4.20;;;;;;;12.37;65.04;102812.94;4979895;28;20022;-71
2023/05/18 08:13:08;;;;;;;9.00;3.65;;;;;;;14.29;60.89;102812.75;4979808;28;20037;-71
2023/05/18 08:15:34;;;;;;;9.55;3.22;;;;;;;15.66;53.13;102806.69;4962650;28;20026;-70
2023/05/18 08:18:00;;;;;;;14.25;3.58;;;;;;;16.18;51.60;102802.31;4980412;28;20042;-71
2023/05/18 08:20:28;;;;;;;8.65;3.55;;;;;;;16.82;49.04;102816.03;4980094;28;20030;-71
2023/05/18 08:22:54;;;;;;;11.82;3.72;;;;;;;16.90;46.91;102823.16;4979698;28;20123;-71
2023/05/18 08:25:20;;;;;;;11.15;5.13;;;;;;;16.92;46.90;102807.63;4979896;28;20034;-71
2023/05/18 08:27:45;;;;;;;7.40;3.72;;;;;;;16.87;48.49;102818.13;4979886;28;20034;-71
2023/05/18 08:30:11;;;;;;;9.70;3.60;;;;;;;16.40;48.47;102809.47;4979638;28;20025;-70
2023/05/18 08:32:36;;;;;;;9.13;3.55;;;;;;;16.38;47.46;102808.00;4979860;28;20417;-71
2023/05/18 08:35:07;;;;;;;8.45;3.45;;;;;;;16.81;45.99;102811.66;4980134;28;20034;-71
2023/05/18 08:37:33;;;;;;;13.63;4.38;;;;;;;17.33;45.25;102804.28;4983438;28;20115;-71
2023/05/18 08:39:58;;;;;;;9.27;3.17;;;;;;;17.88;45.10;102791.06;4983903;28;20081;-71
2023/05/18 08:42:32;;;;;;;7.03;3.42;;;;;;;18.52;43.03;102803.44;4982898;28;20501;-71
2023/05/18 08:45:09;;;;;;;9.43;3.92;;;;;;;19.67;41.29;102796.19;4983510;28;20092;-71
2023/05/18 08:47:36;;;;;;;8.60;3.75;;;;;;;19.83;39.14;102794.91;4982748;28;20069;-71
2023/05/18 08:50:02;;;;;;;10.40;3.45;;;;;;;20.05;38.96;102798.22;4983574;28;20034;-70
2023/05/18 08:52:33;;;;;;;9.18;3.58;;;;;;;19.66;39.29;102797.19;4983410;28;20058;-70
2023/05/18 08:55:03;;;;;;;11.95;4.00;;;;;;;18.62;39.94;102796.59;4983267;28;20504;-70
2023/05/18 08:57:30;;;;;;;9.63;3.72;;;;;;;17.16;42.43;102786.69;4983005;28;20038;-70
2023/05/18 08:59:58;;;;;;;7.78;3.55;;;;;;;16.10;44.75;102789.78;4967970;28;20121;-70
2023/05/18 09:02:24;;;;;;;11.30;2.75;;;;;;;15.16;45.97;102785.78;4983438;28;20072;-70
2023/05/18 09:04:50;;;;;;;7.35;3.00;;;;;;;14.55;48.13;102791.88;4982835;28;20041;-70
2023/05/18 09:07:16;;;;;;;6.43;3.30;;;;;;;13.91;49.49;102788.34;4982496;28;20022;-70
2023/05/18 09:09:42;;;;;;;11.95;3.83;;;;;;;13.59;52.15;102788.22;4982310;28;20436;-70
2023/05/18 09:12:09;;;;;;;7.40;3.50;;;;;;;13.27;52.96;102790.94;4983309;28;20469;-70
2023/05/18 09:14:34;;;;;;;8.50;3.65;;;;;;;12.96;55.81;102788.84;4982839;28;20038;-70
2023/05/18 09:16:59;;;;;;;10.57;4.00;;;;;;;12.59;56.80;102784.75;4982727;28;20132;-70
2023/05/18 09:19:25;;;;;;;9.27;3.65;;;;;;;12.60;57.62;102782.91;4982652;28;20104;-70
2023/05/18 09:21:50;;;;;;;9.35;3.67;;;;;;;12.68;57.72;102789.13;4964739;28;20568;-70
2023/05/18 09:24:18;;;;;;;12.85;4.05;;;;;;;12.84;55.89;102777.63;4982381;28;20117;-70
2023/05/18 09:26:43;;;;;;;12.00;3.50;;;;;;;13.05;56.30;102774.47;4982738;28;20365;-70
2023/05/18 09:29:16;;;;;;;7.55;3.72;;;;;;;13.36;54.61;102769.34;4982031;28;20038;-70
2023/05/18 09:31:43;;;;;;;12.43;3.70;;;;;;;13.48;55.66;102782.41;4982544;28;20037;-70
2023/05/18 09:34:08;;;;;;;8.45;3.55;;;;;;;13.42;54.37;102780.41;4982656;28;20041;-71
2023/05/18 09:36:34;;;;;;;8.55;3.65;;;;;;;13.41;54.08;102776.03;4982052;28;20022;-71
2023/05/18 09:39:08;;;;;;;15.82;5.47;;;;;;;13.61;54.87;102773.84;4982191;28;20064;-71
2023/05/18 09:41:33;;;;;;;8.85;3.60;;;;;;;13.62;53.11;102768.28;4967659;28;20349;-71
2023/05/18 09:44:03;;;;;;;7.80;2.88;;;;;;;13.84;54.84;102765.94;4982413;28;20037;-71
2023/05/18 09:46:31;;;;;;;7.63;3.55;;;;;;;13.86;53.18;102771.94;4982202;28;20030;-71
2023/05/18 09:48:57;;;;;;;8.77;3.67;;;;;;;13.67;51.61;102776.66;4980934;28;20501;-71
2023/05/18 09:51:24;;;;;;;7.22;3.33;;;;;;;13.60;53.49;102773.00;4981804;28;20130;-71
2023/05/18 09:53:57;;;;;;;5.68;2.70;;;;;;;13.68;53.66;102758.75;4964813;28;20110;-71
2023/05/18 09:56:25;;;;;;;7.60;3.78;;;;;;;13.68;52.72;102764.13;4982141;28;20030;-71
2023/05/18 09:58:51;;;;;;;10.18;3.83;;;;;;;13.62;54.66;102770.13;4981184;28;20038;-71
2023/05/18 10:01:17;;;;;;;5.45;3.47;;;;;;;13.42;54.47;102770.50;4982153;28;20497;-71
2023/05/18 10:03:44;;;;;;;11.65;3.47;;;;;;;13.38;53.83;102771.84;4981920;28;20045;-71
2023/05/18 10:06:12;;;;;;;11.95;4.50;;;;;;;13.31;55.81;102774.38;4982154;28;20029;-71
2023/05/18 10:08:38;;;;;;;12.65;4.97;;;;;;;13.24;54.54;102765.28;4981614;28;20030;-71
2023/05/18 10:11:04;;;;;;;11.10;4.25;;;;;;;13.28;57.21;102760.44;4981310;28;20058;-71
2023/05/18 10:13:30;;;;;;;13.93;4.57;;;;;;;13.41;55.48;102751.91;4981498;28;20034;-71
2023/05/18 10:16:04;;;;;;;11.35;4.13;;;;;;;13.36;55.06;102747.03;4982063;28;20066;-71
2023/05/18 10:18:33;;;;;;;11.38;4.47;;;;;;;13.44;52.55;102748.88;4980782;28;20010;-71
2023/05/18 10:21:00;;;;;;;9.13;3.95;;;;;;;13.53;53.21;102758.59;4981791;28;20044;-71
2023/05/18 10:23:29;;;;;;;10.20;4.88;;;;;;;13.64;52.91;102749.38;4981533;28;20046;-71
2023/05/18 10:25:54;;;;;;;11.95;4.72;;;;;;;13.46;53.62;102750.38;4981328;28;20035;-72
2023/05/18 10:28:26;;;;;;;10.02;4.78;;;;;;;13.48;52.60;102744.88;4965071;28;20100;-75
2023/05/18 10:30:55;;;;;;;11.45;5.68;;;;;;;13.54;51.92;102744.19;4980863;28;20025;-71
2023/05/18 10:33:23;;;;;;;15.25;5.03;;;;;;;13.65;54.02;102726.91;4980162;28;20037;-71
2023/05/18 10:35:49;;;;;;;8.73;3.97;;;;;;;13.76;54.05;102748.84;4980327;28;20026;-70
2023/05/18 10:38:18;;;;;;;12.10;4.97;;;;;;;13.75;53.94;102733.78;4979102;28;20076;-71
2023/05/18 10:40:46;;;;;;;14.18;5.63;;;;;;;13.86;54.68;102740.63;4979783;28;20115;-71
2023/05/18 10:43:12;;;;;;;11.13;4.85;;;;;;;13.86;53.43;102737.06;4980313;28;20037;-71
2023/05/18 10:45:39;;;;;;;12.52;5.00;;;;;;;13.90;52.96;102739.25;4980298;28;20038;-71
2023/05/18 10:48:09;;;;;;;8.80;4.30;;;;;;;13.85;53.24;102728.19;4979902;28;20030;-72
2023/05/18 10:50:37;;;;;;;9.73;4.10;;;;;;;14.01;53.70;102738.88;4980591;28;20038;-71
2023/05/18 10:53:05;;;;;;;12.02;4.68;;;;;;;13.90;53.66;102731.19;4980706;28;20065;-70
2023/05/18 10:55:30;;;;;;;11.02;4.25;;;;;;;13.84;54.60;102721.16;4980597;28;20123;-72
2023/05/18 10:58:02;;;;;;;10.35;5.05;;;;;;;14.03;52.18;102739.53;4980592;28;20813;-73
2023/05/18 11:00:29;;;;;;;10.80;4.55;;;;;;;13.94;53.60;102731.72;4964631;28;20026;-71
2023/05/18 11:02:55;;;;;;;11.43;4.22;;;;;;;13.76;51.15;102722.03;4979636;28;20015;-70
2023/05/18 11:05:25;;;;;;;5.63;3.92;;;;;;;13.91;53.34;102719.47;4980367;28;20417;-70
2023/05/18 11:07:59;;;;;;;10.30;4.68;;;;;;;14.00;51.49;102715.75;4979420;28;20077;-71
2023/05/18 11:10:32;;;;;;;8.55;4.85;;;;;;;14.13;53.12;102720.56;4980379;28;20034;-71
2023/05/18 11:13:01;;;;;;;6.30;3.78;;;;;;;14.21;54.02;102717.81;4980790;28;20042;-71
2023/05/18 11:15:54;;;;;;;7.10;4.00;;;;;;;14.25;52.81;102721.00;4980833;28;20539;-71
2023/05/18 11:18:49;;;;;;;6.10;3.60;;;;;;;14.07;52.70;102712.34;4980138;28;20061;-71
2023/05/18 11:21:31;;;;;;;12.40;4.63;;;;;;;14.20;53.77;102715.31;4978753;28;20140;-71
2023/05/18 11:24:12;;;;;;;12.55;4.63;;;;;;;14.15;52.03;102717.72;4980659;28;20033;-71
2023/05/18 11:26:39;;;;;;;7.97;3.40;;;;;;;13.98;51.20;102717.75;4980435;28;20041;-71